createdAt,value
2018-08-24T00:00:02.223Z,16.46
2018-08-24T00:01:02.204Z,16.46
2018-08-24T00:02:02.182Z,16.58
2018-08-24T00:03:02.165Z,16.57
2018-08-24T00:04:02.142Z,16.60
2018-08-24T00:05:02.124Z,16.61
2018-08-24T00:06:02.100Z,16.67
2018-08-24T00:07:02.081Z,16.64
2018-08-24T00:08:02.062Z,16.64
2018-08-24T00:09:02.039Z,16.67
2018-08-24T00:10:02.020Z,16.75
2018-08-24T00:11:01.998Z,16.86
2018-08-24T00:12:01.978Z,16.91
2018-08-24T00:13:01.999Z,16.96
2018-08-24T00:14:01.935Z,16.98
2018-08-24T00:15:01.918Z,17.01
2018-08-24T00:16:01.896Z,16.98
2018-08-24T00:17:01.882Z,16.98
2018-08-24T00:18:01.854Z,16.97
2018-08-24T00:19:01.834Z,17.03
2018-08-24T00:20:01.813Z,17.08
2018-08-24T00:21:01.792Z,17.22
2018-08-24T00:22:01.771Z,17.22
2018-08-24T00:23:01.750Z,17.30
2018-08-24T00:24:01.772Z,17.30
2018-08-24T00:25:01.713Z,17.37
2018-08-24T00:26:01.690Z,17.37
2018-08-24T00:27:01.667Z,17.41
2018-08-24T00:28:01.648Z,17.38
2018-08-24T00:29:01.626Z,17.28
2018-08-24T00:30:01.606Z,17.33
2018-08-24T00:31:01.587Z,17.28
2018-08-24T00:32:01.565Z,17.22
2018-08-24T00:33:01.545Z,17.19
2018-08-24T00:34:01.524Z,17.18
2018-08-24T00:35:01.506Z,17.11
2018-08-24T00:36:01.481Z,17.12
2018-08-24T00:37:01.462Z,17.14
2018-08-24T00:38:01.440Z,17.08
2018-08-24T00:39:01.429Z,17.04
2018-08-24T00:40:01.458Z,17.06
2018-08-24T00:41:01.380Z,16.97
2018-08-24T00:42:01.357Z,16.97
2018-08-24T00:43:01.338Z,17.01
2018-08-24T00:44:01.320Z,16.97
2018-08-24T00:45:01.299Z,16.88
2018-08-24T00:46:01.277Z,16.85
2018-08-24T00:47:01.256Z,16.85
2018-08-24T00:48:01.238Z,16.88
2018-08-24T00:49:01.216Z,16.89
2018-08-24T00:50:01.194Z,16.76
2018-08-24T00:51:01.174Z,16.81
2018-08-24T00:52:01.151Z,16.70
2018-08-24T00:53:01.135Z,16.71
2018-08-24T00:54:01.111Z,16.60
2018-08-24T00:55:01.094Z,16.66
2018-08-24T00:56:01.072Z,16.60
2018-08-24T00:57:01.056Z,16.67
2018-08-24T00:58:01.028Z,16.71
2018-08-24T00:59:01.008Z,16.68
2018-08-24T01:00:00.987Z,16.68
2018-08-24T01:01:00.969Z,16.64
2018-08-24T01:02:00.946Z,16.66
2018-08-24T01:03:00.929Z,16.58
2018-08-24T01:04:00.907Z,16.53
2018-08-24T01:05:00.885Z,16.56
2018-08-24T01:06:00.864Z,16.49
2018-08-24T01:07:00.844Z,16.43
2018-08-24T01:08:00.825Z,16.39
2018-08-24T01:09:00.804Z,16.39
2018-08-24T01:10:00.782Z,16.38
2018-08-24T01:11:00.762Z,16.42
2018-08-24T01:12:00.742Z,16.33
2018-08-24T01:13:00.722Z,16.34
2018-08-24T01:14:00.699Z,16.34
2018-08-24T01:15:00.679Z,16.34
2018-08-24T01:16:00.659Z,16.35
2018-08-24T01:17:00.638Z,16.45
2018-08-24T01:18:00.617Z,16.38
2018-08-24T01:19:00.597Z,16.46
2018-08-24T01:20:00.576Z,16.42
2018-08-24T01:21:00.555Z,16.46
2018-08-24T01:22:00.535Z,16.45
2018-08-24T01:23:00.515Z,16.43
2018-08-24T01:24:00.494Z,16.52
2018-08-24T01:25:00.473Z,16.53
2018-08-24T01:26:00.451Z,16.57
2018-08-24T01:27:00.431Z,16.63
2018-08-24T01:28:00.412Z,16.67
2018-08-24T01:29:00.391Z,16.70
2018-08-24T01:30:00.371Z,16.60
2018-08-24T01:31:00.349Z,16.66
2018-08-24T01:32:00.327Z,16.64
2018-08-24T01:33:00.312Z,16.63
2018-08-24T01:34:00.286Z,16.66
2018-08-24T01:35:00.267Z,16.66
2018-08-24T01:36:00.249Z,16.63
2018-08-24T01:37:00.225Z,16.64
2018-08-24T01:38:00.205Z,16.70
2018-08-24T01:39:00.185Z,16.63
2018-08-24T01:40:00.163Z,16.60
2018-08-24T01:41:00.143Z,16.67
2018-08-24T01:42:00.125Z,16.67
2018-08-24T01:43:00.102Z,16.64
2018-08-24T01:44:00.082Z,16.64
2018-08-24T01:45:00.062Z,16.63
2018-08-24T01:46:00.040Z,16.64
2018-08-24T01:47:00.019Z,16.63
2018-08-24T01:48:00.004Z,16.68
2018-08-24T01:48:59.979Z,16.68
2018-08-24T01:49:59.959Z,16.70
2018-08-24T01:50:59.937Z,16.76
2018-08-24T01:51:59.917Z,16.70
2018-08-24T01:52:59.904Z,16.82
2018-08-24T01:53:59.876Z,16.76
2018-08-24T01:54:59.855Z,16.86
2018-08-24T01:55:59.835Z,16.93
2018-08-24T01:56:59.813Z,16.98
2018-08-24T01:57:59.794Z,17.03
2018-08-24T01:58:59.823Z,17.11
2018-08-24T01:59:59.751Z,17.08
2018-08-24T02:00:59.735Z,17.18
2018-08-24T02:01:59.711Z,17.25
2018-08-24T02:02:59.693Z,17.22
2018-08-24T02:03:59.670Z,17.26
2018-08-24T02:04:59.651Z,17.26
2018-08-24T02:05:59.630Z,17.30
2018-08-24T02:06:59.609Z,17.28
2018-08-24T02:07:59.588Z,17.31
2018-08-24T02:08:59.570Z,17.34
2018-08-24T02:09:59.547Z,17.28
2018-08-24T02:10:59.527Z,17.28
2018-08-24T02:11:59.506Z,17.23
2018-08-24T02:12:59.488Z,17.25
2018-08-24T02:13:59.465Z,17.21
2018-08-24T02:14:59.448Z,17.22
2018-08-24T02:15:59.425Z,17.19
2018-08-24T02:16:59.406Z,17.19
2018-08-24T02:17:59.385Z,17.21
2018-08-24T02:18:59.365Z,17.25
2018-08-24T02:19:59.344Z,17.22
2018-08-24T02:20:59.325Z,17.16
2018-08-24T02:21:59.304Z,17.21
2018-08-24T02:22:59.293Z,17.33
2018-08-24T02:23:59.263Z,17.43
2018-08-24T02:24:59.243Z,17.44
2018-08-24T02:25:59.221Z,17.46
2018-08-24T02:26:59.204Z,17.51
2018-08-24T02:27:59.183Z,17.48
2018-08-24T02:28:59.165Z,17.64
2018-08-24T02:29:59.140Z,17.78
2018-08-24T02:30:59.121Z,17.81
2018-08-24T02:31:59.101Z,17.86
2018-08-24T02:32:59.079Z,17.86
2018-08-24T02:33:59.060Z,17.89
2018-08-24T02:34:59.050Z,17.96
2018-08-24T02:35:59.020Z,17.95
2018-08-24T02:36:58.999Z,17.99
2018-08-24T02:37:58.978Z,17.93
2018-08-24T02:38:58.958Z,18.02
2018-08-24T02:39:58.941Z,18.05
2018-08-24T02:40:58.919Z,18.08
2018-08-24T02:41:58.899Z,18.02
2018-08-24T02:42:58.877Z,18.07
2018-08-24T02:43:58.858Z,17.99
2018-08-24T02:44:58.933Z,17.97
2018-08-24T02:45:58.820Z,17.95
2018-08-24T02:46:58.798Z,17.92
2018-08-24T02:47:58.777Z,17.89
2018-08-24T02:48:58.756Z,17.86
2018-08-24T02:49:58.735Z,17.90
2018-08-24T02:50:58.717Z,17.99
2018-08-24T02:51:58.697Z,18.00
2018-08-24T02:52:58.676Z,17.97
2018-08-24T02:53:58.655Z,18.00
2018-08-24T02:54:58.635Z,17.95
2018-08-24T02:55:58.616Z,17.96
2018-08-24T02:56:58.595Z,17.97
2018-08-24T02:57:58.574Z,18.02
2018-08-24T02:58:58.554Z,17.95
2018-08-24T02:59:58.536Z,18.02
2018-08-24T03:00:58.514Z,18.11
2018-08-24T03:01:58.493Z,18.02
2018-08-24T03:02:58.475Z,18.15
2018-08-24T03:03:58.454Z,18.15
2018-08-24T03:04:58.444Z,18.20
2018-08-24T03:05:58.415Z,18.36
2018-08-24T03:06:58.392Z,18.27
2018-08-24T03:07:58.372Z,18.45
2018-08-24T03:08:58.354Z,18.45
2018-08-24T03:09:58.332Z,18.55
2018-08-24T03:10:58.313Z,18.51
2018-08-24T03:11:58.293Z,18.50
2018-08-24T03:12:58.273Z,18.48
2018-08-24T03:13:58.252Z,18.42
2018-08-24T03:14:58.232Z,18.52
2018-08-24T03:15:58.227Z,18.60
2018-08-24T03:16:58.192Z,18.55
2018-08-24T03:17:58.171Z,18.58
2018-08-24T03:18:58.152Z,18.54
2018-08-24T03:19:58.132Z,18.54
2018-08-24T03:20:58.112Z,18.54
2018-08-24T03:21:58.091Z,18.54
2018-08-24T03:22:58.071Z,18.55
2018-08-24T03:23:58.050Z,18.54
2018-08-24T03:24:58.031Z,18.50
2018-08-24T03:25:58.011Z,18.55
2018-08-24T03:26:57.991Z,18.54
2018-08-24T03:27:57.970Z,18.52
2018-08-24T03:28:57.951Z,18.54
2018-08-24T03:29:57.930Z,18.51
2018-08-24T03:30:57.911Z,18.48
2018-08-24T03:31:57.892Z,18.48
2018-08-24T03:32:57.871Z,18.47
2018-08-24T03:33:57.851Z,18.52
2018-08-24T03:34:57.830Z,18.55
2018-08-24T03:35:57.810Z,18.50
2018-08-24T03:36:57.792Z,18.48
2018-08-24T03:37:57.770Z,18.54
2018-08-24T03:38:57.752Z,18.48
2018-08-24T03:39:57.731Z,18.45
2018-08-24T03:40:57.710Z,18.42
2018-08-24T03:41:57.689Z,18.41
2018-08-24T03:42:57.669Z,18.47
2018-08-24T03:43:57.649Z,18.45
2018-08-24T03:44:57.631Z,18.47
2018-08-24T03:45:57.667Z,18.48
2018-08-24T03:46:57.590Z,18.45
2018-08-24T03:47:57.570Z,18.41
2018-08-24T03:48:57.549Z,18.35
2018-08-24T03:49:57.529Z,18.36
2018-08-24T03:50:57.513Z,18.44
2018-08-24T03:51:57.488Z,18.37
2018-08-24T03:52:57.532Z,18.39
2018-08-24T03:53:57.448Z,18.47
2018-08-24T03:54:57.427Z,18.42
2018-08-24T03:55:57.407Z,18.57
2018-08-24T03:56:57.390Z,18.55
2018-08-24T03:57:57.367Z,18.47
2018-08-24T03:58:57.347Z,18.55
2018-08-24T03:59:57.327Z,18.39
2018-08-24T04:00:57.310Z,18.48
2018-08-24T04:01:57.285Z,18.51
2018-08-24T04:02:57.265Z,18.50
2018-08-24T04:03:57.261Z,18.52
2018-08-24T04:04:57.226Z,18.54
2018-08-24T04:05:57.204Z,18.41
2018-08-24T04:06:57.184Z,18.55
2018-08-24T04:07:57.165Z,18.51
2018-08-24T04:08:57.145Z,18.55
2018-08-24T04:09:57.124Z,18.57
2018-08-24T04:10:57.104Z,18.65
2018-08-24T04:11:57.085Z,18.60
2018-08-24T04:12:57.168Z,18.50
2018-08-24T04:13:57.042Z,18.58
2018-08-24T04:14:57.023Z,18.51
2018-08-24T04:15:57.005Z,18.47
2018-08-24T04:16:56.983Z,18.27
2018-08-24T04:17:56.962Z,18.15
2018-08-24T04:18:56.942Z,18.10
2018-08-24T04:19:56.922Z,17.99
2018-08-24T04:20:56.901Z,17.95
2018-08-24T04:21:56.881Z,17.84
2018-08-24T04:22:56.861Z,17.79
2018-08-24T04:23:56.841Z,17.84
2018-08-24T04:24:56.820Z,17.81
2018-08-24T04:25:56.880Z,17.78
2018-08-24T04:26:56.779Z,17.66
2018-08-24T04:27:56.760Z,17.71
2018-08-24T04:28:56.738Z,17.66
2018-08-24T04:29:56.720Z,17.66
2018-08-24T04:30:56.699Z,17.56
2018-08-24T04:31:56.680Z,17.58
2018-08-24T04:32:56.658Z,17.52
2018-08-24T04:33:56.636Z,17.49
2018-08-24T04:34:56.673Z,17.43
2018-08-24T04:35:56.596Z,17.44
2018-08-24T04:36:56.577Z,17.41
2018-08-24T04:37:56.553Z,17.40
2018-08-24T04:38:56.536Z,17.38
2018-08-24T04:39:56.513Z,17.38
2018-08-24T04:40:56.494Z,17.28
2018-08-24T04:41:56.472Z,17.43
2018-08-24T04:42:56.455Z,17.34
2018-08-24T04:43:56.432Z,17.34
2018-08-24T04:44:56.415Z,17.33
2018-08-24T04:45:56.390Z,17.33
2018-08-24T04:46:56.371Z,17.31
2018-08-24T04:47:56.350Z,17.31
2018-08-24T04:48:56.330Z,17.28
2018-08-24T04:49:56.309Z,17.28
2018-08-24T04:50:56.289Z,17.28
2018-08-24T04:51:56.266Z,17.16
2018-08-24T04:52:56.247Z,17.26
2018-08-24T04:53:56.226Z,17.21
2018-08-24T04:54:56.207Z,17.21
2018-08-24T04:55:56.185Z,17.16
2018-08-24T04:56:56.164Z,17.22
2018-08-24T04:57:56.143Z,17.18
2018-08-24T04:58:56.122Z,17.11
2018-08-24T04:59:56.102Z,17.18
2018-08-24T05:00:56.081Z,17.12
2018-08-24T05:01:56.059Z,17.14
2018-08-24T05:02:56.042Z,17.11
2018-08-24T05:03:56.019Z,17.23
2018-08-24T05:04:56.003Z,17.21
2018-08-24T05:05:55.977Z,17.16
2018-08-24T05:06:55.956Z,17.21
2018-08-24T05:07:55.937Z,17.21
2018-08-24T05:08:55.917Z,17.25
2018-08-24T05:09:55.893Z,17.26
2018-08-24T05:10:55.872Z,17.23
2018-08-24T05:11:55.852Z,17.30
2018-08-24T05:12:55.832Z,17.33
2018-08-24T05:13:55.810Z,17.40
2018-08-24T05:14:55.790Z,17.49
2018-08-24T05:15:55.772Z,17.55
2018-08-24T05:16:55.749Z,17.62
2018-08-24T05:17:55.727Z,17.72
2018-08-24T05:18:55.706Z,17.82
2018-08-24T05:19:55.687Z,17.86
2018-08-24T05:20:55.667Z,17.95
2018-08-24T05:21:55.645Z,17.97
2018-08-24T05:22:55.623Z,18.05
2018-08-24T05:23:55.606Z,18.11
2018-08-24T05:24:55.661Z,18.14
2018-08-24T05:25:55.563Z,18.29
2018-08-24T05:26:55.542Z,18.32
2018-08-24T05:27:55.524Z,18.47
2018-08-24T05:28:55.502Z,18.58
2018-08-24T05:29:55.483Z,18.60
2018-08-24T05:30:55.463Z,18.88
2018-08-24T05:31:55.443Z,19.00
2018-08-24T05:32:55.422Z,19.18
2018-08-24T05:33:55.403Z,19.41
2018-08-24T05:34:55.383Z,19.58
2018-08-24T05:35:55.363Z,19.56
2018-08-24T05:36:55.344Z,19.58
2018-08-24T05:37:55.323Z,20.06
2018-08-24T05:38:55.306Z,20.41
2018-08-24T05:39:55.284Z,20.66
2018-08-24T05:40:55.263Z,20.58
2018-08-24T05:41:55.245Z,20.80
2018-08-24T05:42:55.230Z,21.09
2018-08-24T05:43:55.207Z,20.97
2018-08-24T05:44:55.189Z,21.40
2018-08-24T05:45:55.169Z,21.46
2018-08-24T05:46:55.152Z,21.13
2018-08-24T05:47:55.132Z,20.74
2018-08-24T05:48:55.141Z,20.58
2018-08-24T05:49:55.095Z,20.38
2018-08-24T05:50:55.081Z,20.17
2018-08-24T05:51:55.059Z,20.05
2018-08-24T05:52:55.042Z,20.05
2018-08-24T05:53:55.022Z,20.18
2018-08-24T05:54:55.005Z,20.77
2018-08-24T05:55:54.986Z,21.37
2018-08-24T05:56:54.967Z,21.58
2018-08-24T05:57:54.947Z,21.68
2018-08-24T05:58:54.929Z,22.06
2018-08-24T05:59:54.913Z,22.54
2018-08-24T06:00:54.894Z,23.09
2018-08-24T06:01:54.876Z,23.58
2018-08-24T06:02:54.859Z,24.02
2018-08-24T06:03:54.841Z,23.73
2018-08-24T06:04:54.824Z,23.51
2018-08-24T06:05:54.807Z,23.33
2018-08-24T06:06:54.790Z,23.07
2018-08-24T06:07:54.773Z,22.91
2018-08-24T06:08:54.757Z,22.55
2018-08-24T06:09:54.739Z,22.10
2018-08-24T06:10:54.722Z,21.44
2018-08-24T06:11:54.704Z,21.09
2018-08-24T06:12:54.688Z,20.80
2018-08-24T06:13:54.670Z,20.42
2018-08-24T06:14:54.654Z,20.39
2018-08-24T06:15:54.710Z,20.31
2018-08-24T06:16:54.620Z,20.16
2018-08-24T06:17:54.600Z,20.14
2018-08-24T06:18:54.587Z,20.05
2018-08-24T06:19:54.566Z,20.06
2018-08-24T06:20:54.548Z,20.01
2018-08-24T06:21:54.529Z,20.05
2018-08-24T06:22:54.513Z,20.02
2018-08-24T06:23:54.493Z,20.08
2018-08-24T06:24:54.475Z,19.95
2018-08-24T06:25:54.456Z,19.98
2018-08-24T06:26:54.437Z,19.91
2018-08-24T06:27:54.419Z,19.94
2018-08-24T06:28:54.402Z,19.87
2018-08-24T06:29:54.381Z,19.87
2018-08-24T06:30:54.363Z,19.91
2018-08-24T06:31:54.345Z,19.91
2018-08-24T06:32:54.402Z,19.76
2018-08-24T06:33:54.308Z,19.88
2018-08-24T06:34:54.290Z,19.84
2018-08-24T06:35:54.269Z,19.78
2018-08-24T06:36:54.260Z,19.81
2018-08-24T06:37:54.235Z,19.84
2018-08-24T06:38:54.213Z,19.78
2018-08-24T06:39:54.200Z,19.95
2018-08-24T06:40:54.177Z,19.94
2018-08-24T06:41:54.171Z,20.01
2018-08-24T06:42:54.138Z,20.05
2018-08-24T06:43:54.120Z,19.98
2018-08-24T06:44:54.100Z,20.05
2018-08-24T06:45:54.081Z,20.05
2018-08-24T06:46:54.061Z,20.16
2018-08-24T06:47:54.043Z,20.33
2018-08-24T06:48:54.025Z,20.33
2018-08-24T06:49:54.006Z,20.48
2018-08-24T06:50:53.986Z,20.62
2018-08-24T06:51:53.969Z,20.59
2018-08-24T06:52:53.958Z,20.73
2018-08-24T06:53:54.023Z,20.69
2018-08-24T06:54:53.911Z,20.70
2018-08-24T06:55:53.893Z,20.79
2018-08-24T06:56:53.875Z,20.80
2018-08-24T06:57:53.855Z,20.74
2018-08-24T06:58:53.837Z,20.98
2018-08-24T06:59:53.821Z,20.99
2018-08-24T07:00:53.800Z,21.09
2018-08-24T07:01:53.781Z,21.10
2018-08-24T07:02:53.764Z,21.12
2018-08-24T07:03:53.744Z,21.17
2018-08-24T07:04:53.726Z,21.24
2018-08-24T07:05:53.731Z,22.60
2018-08-24T07:06:53.689Z,23.58
2018-08-24T07:07:53.670Z,24.53
2018-08-24T07:08:53.654Z,24.62
2018-08-24T07:09:53.636Z,24.71
2018-08-24T07:10:53.618Z,25.00
2018-08-24T07:11:53.601Z,24.88
2018-08-24T07:12:53.605Z,23.98
2018-08-24T07:13:53.566Z,24.55
2018-08-24T07:14:53.549Z,24.68
2018-08-24T07:15:53.533Z,24.91
2018-08-24T07:16:53.517Z,24.78
2018-08-24T07:17:53.500Z,23.85
2018-08-24T07:18:53.483Z,24.03
2018-08-24T07:19:53.499Z,23.69
2018-08-24T07:20:53.451Z,23.17
2018-08-24T07:21:53.434Z,22.57
2018-08-24T07:22:53.419Z,22.35
2018-08-24T07:23:53.403Z,22.30
2018-08-24T07:24:53.386Z,21.94
2018-08-24T07:25:53.368Z,21.84
2018-08-24T07:26:53.353Z,21.83
2018-08-24T07:27:53.337Z,22.10
2018-08-24T07:28:53.319Z,21.80
2018-08-24T07:29:53.302Z,21.56
2018-08-24T07:30:53.287Z,21.54
2018-08-24T07:31:53.269Z,21.53
2018-08-24T07:32:53.252Z,21.61
2018-08-24T07:33:53.234Z,21.82
2018-08-24T07:34:53.217Z,22.22
2018-08-24T07:35:53.200Z,22.90
2018-08-24T07:36:53.182Z,22.68
2018-08-24T07:37:53.163Z,23.17
2018-08-24T07:38:53.146Z,23.65
2018-08-24T07:39:53.128Z,23.80
2018-08-24T07:40:53.113Z,24.53
2018-08-24T07:41:53.213Z,23.97
2018-08-24T07:42:53.076Z,24.68
2018-08-24T07:43:53.062Z,25.36
2018-08-24T07:44:53.045Z,25.88
2018-08-24T07:45:53.027Z,26.65
2018-08-24T07:46:53.011Z,27.19
2018-08-24T07:47:52.994Z,27.24
2018-08-24T07:48:52.980Z,26.99
2018-08-24T07:49:52.963Z,26.30
2018-08-24T07:50:52.968Z,26.70
2018-08-24T07:51:52.935Z,27.34
2018-08-24T07:52:52.918Z,27.10
2018-08-24T07:53:52.904Z,26.20
2018-08-24T07:54:52.889Z,25.09
2018-08-24T07:55:52.876Z,24.32
2018-08-24T07:56:52.908Z,23.87
2018-08-24T07:57:52.845Z,23.75
2018-08-24T07:58:52.830Z,24.03
2018-08-24T07:59:52.817Z,23.85
2018-08-24T08:00:52.801Z,23.50
2018-08-24T08:01:52.786Z,23.17
2018-08-24T08:02:52.770Z,23.04
2018-08-24T08:03:52.756Z,22.83
2018-08-24T08:04:52.738Z,22.94
2018-08-24T08:05:52.725Z,22.72
2018-08-24T08:06:52.707Z,22.47
2018-08-24T08:07:52.691Z,22.95
2018-08-24T08:08:52.676Z,23.27
2018-08-24T08:09:52.658Z,23.95
2018-08-24T08:10:52.645Z,23.94
2018-08-24T08:11:52.628Z,23.53
2018-08-24T08:12:52.616Z,23.20
2018-08-24T08:13:52.598Z,23.23
2018-08-24T08:14:52.623Z,23.31
2018-08-24T08:15:52.565Z,24.13
2018-08-24T08:16:52.549Z,25.10
2018-08-24T08:17:52.532Z,25.70
2018-08-24T08:18:52.517Z,25.13
2018-08-24T08:19:52.503Z,25.15
2018-08-24T08:20:52.487Z,25.75
2018-08-24T08:21:52.470Z,26.30
2018-08-24T08:22:52.456Z,25.67
2018-08-24T08:23:52.442Z,24.77
2018-08-24T08:24:52.426Z,24.16
2018-08-24T08:25:52.410Z,24.12
2018-08-24T08:26:52.397Z,24.02
2018-08-24T08:27:52.382Z,23.85
2018-08-24T08:28:52.369Z,23.78
2018-08-24T08:29:52.352Z,23.76
2018-08-24T08:30:52.339Z,23.47
2018-08-24T08:31:52.321Z,22.83
2018-08-24T08:32:52.307Z,22.79
2018-08-24T08:33:52.290Z,22.95
2018-08-24T08:34:52.275Z,23.25
2018-08-24T08:35:52.259Z,23.78
2018-08-24T08:36:52.244Z,24.43
2018-08-24T08:37:52.226Z,24.57
2018-08-24T08:38:52.230Z,24.30
2018-08-24T08:39:52.195Z,24.57
2018-08-24T08:40:52.181Z,24.77
2018-08-24T08:41:52.166Z,24.90
2018-08-24T08:42:52.147Z,24.93
2018-08-24T08:43:52.132Z,24.67
2018-08-24T08:44:52.116Z,24.52
2018-08-24T08:45:52.102Z,24.46
2018-08-24T08:46:52.085Z,24.16
2018-08-24T08:47:52.069Z,24.16
2018-08-24T08:48:52.056Z,24.50
2018-08-24T08:49:52.037Z,24.68
2018-08-24T08:50:52.024Z,24.68
2018-08-24T08:51:52.007Z,24.57
2018-08-24T08:52:51.992Z,24.43
2018-08-24T08:53:51.975Z,24.37
2018-08-24T08:54:51.961Z,24.34
2018-08-24T08:55:51.946Z,24.80
2018-08-24T08:56:51.931Z,24.84
2018-08-24T08:57:51.918Z,24.27
2018-08-24T08:58:51.899Z,24.08
2018-08-24T08:59:51.884Z,23.80
2018-08-24T09:00:51.871Z,23.70
2018-08-24T09:01:51.853Z,23.23
2018-08-24T09:02:51.837Z,23.19
2018-08-24T09:03:51.822Z,22.98
2018-08-24T09:04:51.806Z,23.31
2018-08-24T09:05:51.805Z,23.69
2018-08-24T09:06:51.776Z,24.05
2018-08-24T09:07:51.759Z,24.61
2018-08-24T09:08:51.743Z,24.78
2018-08-24T09:09:51.727Z,25.06
2018-08-24T09:10:51.712Z,25.40
2018-08-24T09:11:51.698Z,25.60
2018-08-24T09:12:51.732Z,25.55
2018-08-24T09:13:51.667Z,25.30
2018-08-24T09:14:51.656Z,24.91
2018-08-24T09:15:51.638Z,24.65
2018-08-24T09:16:51.620Z,24.96
2018-08-24T09:17:51.605Z,24.71
2018-08-24T09:18:51.591Z,24.55
2018-08-24T09:19:51.575Z,24.46
2018-08-24T09:20:51.561Z,24.58
2018-08-24T09:21:51.545Z,24.83
2018-08-24T09:22:51.532Z,25.17
2018-08-24T09:23:51.514Z,25.33
2018-08-24T09:24:51.499Z,25.62
2018-08-24T09:25:51.552Z,25.60
2018-08-24T09:26:51.469Z,25.32
2018-08-24T09:27:51.455Z,25.36
2018-08-24T09:28:51.440Z,25.36
2018-08-24T09:29:51.425Z,25.13
2018-08-24T09:30:51.408Z,25.18
2018-08-24T09:31:51.392Z,24.90
2018-08-24T09:32:51.445Z,25.20
2018-08-24T09:33:51.363Z,24.96
2018-08-24T09:34:51.346Z,25.08
2018-08-24T09:35:51.332Z,25.23
2018-08-24T09:36:51.319Z,25.51
2018-08-24T09:37:51.322Z,25.72
2018-08-24T09:38:51.287Z,25.54
2018-08-24T09:39:51.271Z,24.98
2018-08-24T09:40:51.258Z,24.73
2018-08-24T09:41:51.240Z,24.98
2018-08-24T09:42:51.232Z,25.33
2018-08-24T09:43:51.213Z,25.69
2018-08-24T09:44:51.197Z,25.79
2018-08-24T09:45:51.181Z,25.18
2018-08-24T09:46:51.167Z,24.96
2018-08-24T09:47:51.151Z,25.46
2018-08-24T09:48:51.136Z,25.91
2018-08-24T09:49:51.123Z,26.02
2018-08-24T09:50:51.108Z,26.32
2018-08-24T09:51:51.094Z,26.45
2018-08-24T09:52:51.079Z,26.48
2018-08-24T09:53:51.063Z,26.45
2018-08-24T09:54:51.049Z,26.80
2018-08-24T09:55:51.039Z,26.72
2018-08-24T09:56:51.126Z,26.73
2018-08-24T09:57:51.007Z,26.70
2018-08-24T09:58:50.991Z,26.75
2018-08-24T09:59:50.978Z,26.97
2018-08-24T10:00:50.965Z,26.33
2018-08-24T10:01:50.949Z,25.64
2018-08-24T10:02:50.960Z,25.54
2018-08-24T10:03:50.971Z,25.38
2018-08-24T10:04:50.906Z,25.47
2018-08-24T10:05:50.891Z,25.47
2018-08-24T10:06:50.903Z,25.70
2018-08-24T10:07:50.865Z,25.72
2018-08-24T10:08:50.847Z,25.80
2018-08-24T10:09:50.833Z,25.39
2018-08-24T10:10:50.819Z,25.32
2018-08-24T10:11:50.805Z,25.36
2018-08-24T10:12:50.789Z,25.55
2018-08-24T10:13:50.774Z,25.43
2018-08-24T10:14:50.761Z,25.17
2018-08-24T10:15:50.746Z,25.18
2018-08-24T10:16:50.732Z,24.84
2018-08-24T10:17:50.716Z,24.60
2018-08-24T10:18:50.699Z,24.42
2018-08-24T10:19:50.688Z,24.28
2018-08-24T10:20:50.670Z,24.09
2018-08-24T10:21:50.655Z,24.03
2018-08-24T10:22:50.644Z,24.03
2018-08-24T10:23:50.626Z,24.09
2018-08-24T10:24:50.611Z,24.05
2018-08-24T10:25:50.596Z,23.80
2018-08-24T10:26:50.580Z,23.88
2018-08-24T10:27:50.565Z,24.08
2018-08-24T10:28:50.552Z,23.93
2018-08-24T10:29:50.683Z,23.73
2018-08-24T10:30:50.521Z,23.72
2018-08-24T10:31:50.504Z,23.83
2018-08-24T10:32:50.489Z,23.98
2018-08-24T10:33:50.505Z,24.13
2018-08-24T10:34:50.484Z,23.79
2018-08-24T10:35:50.443Z,23.75
2018-08-24T10:36:50.428Z,23.66
2018-08-24T10:37:50.412Z,23.54
2018-08-24T10:38:50.398Z,23.57
2018-08-24T10:39:50.381Z,23.48
2018-08-24T10:40:50.412Z,22.92
2018-08-24T10:41:50.348Z,22.70
2018-08-24T10:42:50.333Z,22.43
2018-08-24T10:43:50.317Z,22.33
2018-08-24T10:44:50.303Z,22.37
2018-08-24T10:45:50.286Z,22.33
2018-08-24T10:46:50.270Z,22.22
2018-08-24T10:47:50.261Z,22.45
2018-08-24T10:48:50.237Z,22.28
2018-08-24T10:49:50.220Z,22.25
2018-08-24T10:50:50.204Z,22.10
2018-08-24T10:51:50.187Z,22.17
2018-08-24T10:52:50.173Z,22.10
2018-08-24T10:53:50.153Z,21.80
2018-08-24T10:54:50.147Z,21.56
2018-08-24T10:55:50.293Z,21.64
2018-08-24T10:56:50.103Z,21.84
2018-08-24T10:57:50.089Z,22.09
2018-08-24T10:58:50.070Z,22.37
2018-08-24T10:59:50.054Z,22.61
2018-08-24T11:00:50.036Z,22.97
2018-08-24T11:01:50.021Z,23.27
2018-08-24T11:02:50.004Z,23.27
2018-08-24T11:03:49.987Z,23.40
2018-08-24T11:04:49.973Z,23.46
2018-08-24T11:05:49.955Z,23.39
2018-08-24T11:06:49.939Z,23.10
2018-08-24T11:07:50.019Z,22.97
2018-08-24T11:08:49.906Z,22.70
2018-08-24T11:09:49.892Z,22.68
2018-08-24T11:10:49.872Z,22.35
2018-08-24T11:11:49.857Z,22.17
2018-08-24T11:12:49.840Z,21.88
2018-08-24T11:13:49.822Z,21.96
2018-08-24T11:14:49.805Z,21.99
2018-08-24T11:15:49.789Z,22.03
2018-08-24T11:16:49.822Z,22.18
2018-08-24T11:17:49.757Z,22.20
2018-08-24T11:18:49.737Z,22.18
2018-08-24T11:19:49.721Z,22.25
2018-08-24T11:20:49.704Z,22.33
2018-08-24T11:21:49.688Z,22.40
2018-08-24T11:22:49.669Z,22.47
2018-08-24T11:23:49.654Z,22.39
2018-08-24T11:24:49.639Z,22.33
2018-08-24T11:25:49.619Z,22.57
2018-08-24T11:26:49.638Z,22.33
2018-08-24T11:27:49.588Z,22.43
2018-08-24T11:28:49.572Z,22.49
2018-08-24T11:29:49.553Z,22.60
2018-08-24T11:30:49.536Z,22.64
2018-08-24T11:31:49.519Z,22.64
2018-08-24T11:32:49.503Z,22.73
2018-08-24T11:33:49.530Z,22.90
2018-08-24T11:34:49.470Z,22.98
2018-08-24T11:35:49.516Z,23.12
2018-08-24T11:36:49.434Z,23.17
2018-08-24T11:37:49.420Z,23.39
2018-08-24T11:38:49.406Z,23.51
2018-08-24T11:39:49.387Z,23.46
2018-08-24T11:40:49.368Z,23.75
2018-08-24T11:41:49.419Z,23.36
2018-08-24T11:42:49.336Z,23.43
2018-08-24T11:43:49.320Z,23.35
2018-08-24T11:44:49.301Z,23.19
2018-08-24T11:45:49.285Z,23.01
2018-08-24T11:46:49.272Z,23.00
2018-08-24T11:47:49.272Z,23.07
2018-08-24T11:48:49.237Z,23.15
2018-08-24T11:49:49.221Z,23.53
2018-08-24T11:50:49.205Z,23.79
2018-08-24T11:51:49.187Z,24.12
2018-08-24T11:52:49.171Z,24.40
2018-08-24T11:53:49.155Z,24.78
2018-08-24T11:54:49.140Z,24.91
2018-08-24T11:55:49.124Z,25.00
2018-08-24T11:56:49.108Z,25.00
2018-08-24T11:57:49.092Z,24.35
2018-08-24T11:58:49.075Z,23.87
2018-08-24T11:59:49.124Z,23.51
2018-08-24T12:00:49.046Z,23.05
2018-08-24T12:01:49.028Z,22.80
2018-08-24T12:02:49.012Z,22.64
2018-08-24T12:03:48.997Z,22.67
2018-08-24T12:04:48.983Z,22.98
2018-08-24T12:05:48.964Z,23.00
2018-08-24T12:06:48.949Z,23.17
2018-08-24T12:07:48.939Z,23.35
2018-08-24T12:08:48.918Z,23.20
2018-08-24T12:09:48.902Z,23.16
2018-08-24T12:10:48.884Z,23.17
2018-08-24T12:11:48.870Z,23.38
2018-08-24T12:12:48.854Z,23.39
2018-08-24T12:13:48.890Z,23.33
2018-08-24T12:14:48.821Z,23.32
2018-08-24T12:15:48.805Z,23.32
2018-08-24T12:16:48.792Z,23.15
2018-08-24T12:17:48.774Z,23.05
2018-08-24T12:18:48.759Z,22.97
2018-08-24T12:19:48.743Z,23.01
2018-08-24T12:20:48.741Z,23.01
2018-08-24T12:21:48.711Z,23.20
2018-08-24T12:22:48.695Z,23.36
2018-08-24T12:23:48.677Z,23.63
2018-08-24T12:24:48.661Z,23.93
2018-08-24T12:25:48.646Z,24.30
2018-08-24T12:26:48.629Z,24.06
2018-08-24T12:27:48.612Z,23.90
2018-08-24T12:28:48.597Z,23.79
2018-08-24T12:29:48.583Z,23.61
2018-08-24T12:30:48.615Z,23.76
2018-08-24T12:31:48.549Z,23.73
2018-08-24T12:32:48.533Z,23.66
2018-08-24T12:33:48.518Z,23.66
2018-08-24T12:34:48.541Z,23.58
2018-08-24T12:35:48.485Z,23.60
2018-08-24T12:36:48.469Z,23.68
2018-08-24T12:37:48.454Z,23.65
2018-08-24T12:38:48.438Z,23.69
2018-08-24T12:39:48.422Z,23.83
2018-08-24T12:40:48.405Z,23.97
2018-08-24T12:41:48.389Z,23.88
2018-08-24T12:42:48.374Z,24.09
2018-08-24T12:43:48.358Z,24.24
2018-08-24T12:44:48.345Z,24.28
2018-08-24T12:45:48.327Z,23.98
2018-08-24T12:46:48.311Z,23.60
2018-08-24T12:47:48.297Z,23.47
2018-08-24T12:48:48.280Z,23.57
2018-08-24T12:49:48.264Z,23.48
2018-08-24T12:50:48.248Z,23.33
2018-08-24T12:51:48.233Z,23.53